createdAt,value
2023-05-19T00:00:09.303Z,71.48
2023-05-19T00:02:39.605Z,71.64
2023-05-19T00:05:07.050Z,71.59
2023-05-19T00:07:35.272Z,71.63
2023-05-19T00:10:02.213Z,71.63
2023-05-19T00:12:29.028Z,71.87
2023-05-19T00:14:55.973Z,72.10
2023-05-19T00:17:23.487Z,71.94
2023-05-19T00:19:50.243Z,72.19
2023-05-19T00:22:16.861Z,71.93
2023-05-19T00:24:43.627Z,71.96
2023-05-19T00:27:10.283Z,72.03
2023-05-19T00:29:37.071Z,72.12
2023-05-19T00:32:03.940Z,71.85
2023-05-19T00:34:30.700Z,71.94
2023-05-19T00:36:57.372Z,72.04
2023-05-19T00:39:24.283Z,72.05
2023-05-19T00:41:51.586Z,72.18
2023-05-19T00:44:18.203Z,72.02
2023-05-19T00:46:45.134Z,72.02
2023-05-19T00:49:11.770Z,72.00
2023-05-19T00:51:38.719Z,72.12
2023-05-19T00:54:05.709Z,72.30
2023-05-19T00:56:32.858Z,72.13
2023-05-19T00:58:59.666Z,72.43
2023-05-19T01:01:27.192Z,72.50
2023-05-19T01:06:23.351Z,72.49
2023-05-19T01:08:51.605Z,72.56
2023-05-19T01:11:18.508Z,72.28
2023-05-19T01:13:45.694Z,72.60
2023-05-19T01:16:43.107Z,72.73
2023-05-19T01:19:21.125Z,72.67
2023-05-19T01:22:23.048Z,72.64
2023-05-19T01:25:29.239Z,72.49
2023-05-19T01:28:17.640Z,72.55
2023-05-19T01:30:48.724Z,72.63
2023-05-19T01:33:16.664Z,72.73
2023-05-19T01:35:44.204Z,72.56
2023-05-19T01:38:13.244Z,72.95
2023-05-19T01:40:41.585Z,72.84
2023-05-19T01:43:10.806Z,72.87
2023-05-19T01:45:38.446Z,72.90
2023-05-19T01:48:07.226Z,72.85
2023-05-19T01:50:35.873Z,72.69
2023-05-19T01:53:02.883Z,72.74
2023-05-19T01:55:29.862Z,72.79
2023-05-19T01:58:22.900Z,72.53
2023-05-19T02:00:56.814Z,72.79
2023-05-19T02:03:54.578Z,72.81
2023-05-19T02:06:33.446Z,72.61
2023-05-19T02:09:13.757Z,72.90
2023-05-19T02:11:47.530Z,73.04
2023-05-19T02:14:20.621Z,73.02
2023-05-19T02:16:48.990Z,73.11
2023-05-19T02:19:32.093Z,73.32
2023-05-19T02:21:59.021Z,73.25
2023-05-19T02:24:26.096Z,73.39
2023-05-19T02:26:53.765Z,73.15
2023-05-19T02:29:21.078Z,73.41
2023-05-19T02:31:48.433Z,73.23
2023-05-19T02:34:15.506Z,73.34
2023-05-19T02:36:43.190Z,73.19
2023-05-19T02:39:11.134Z,73.41
2023-05-19T02:41:41.038Z,73.37
2023-05-19T02:44:07.925Z,73.26
2023-05-19T02:46:34.614Z,73.19
2023-05-19T02:49:01.337Z,73.32
2023-05-19T02:51:28.397Z,73.38
2023-05-19T02:53:55.174Z,73.45
2023-05-19T02:56:21.837Z,73.44
2023-05-19T02:58:48.805Z,73.23
2023-05-19T03:01:16.581Z,73.61
2023-05-19T03:03:43.379Z,73.37
2023-05-19T03:06:10.243Z,73.26
2023-05-19T03:08:36.873Z,73.36
2023-05-19T03:11:03.689Z,73.21
2023-05-19T03:13:30.454Z,73.45
2023-05-19T03:15:58.850Z,73.47
2023-05-19T03:18:28.686Z,73.57
2023-05-19T03:20:55.649Z,73.58
2023-05-19T03:23:22.485Z,73.64
2023-05-19T03:25:49.199Z,73.71
2023-05-19T03:28:15.876Z,73.96
2023-05-19T03:30:42.612Z,74.14
2023-05-19T03:33:09.506Z,74.37
2023-05-19T03:35:36.253Z,74.52
2023-05-19T03:38:03.117Z,74.65
2023-05-19T03:40:29.981Z,74.70
2023-05-19T03:42:56.964Z,74.99
2023-05-19T03:45:23.594Z,74.93
2023-05-19T03:47:50.341Z,75.21
2023-05-19T03:50:17.067Z,75.52
2023-05-19T03:52:46.481Z,75.41
2023-05-19T03:55:14.843Z,75.50
2023-05-19T03:57:41.823Z,75.70
2023-05-19T04:00:11.261Z,75.66
2023-05-19T04:02:38.290Z,75.78
2023-05-19T04:05:05.455Z,75.80
2023-05-19T04:07:32.127Z,75.84
2023-05-19T04:09:58.754Z,75.95
2023-05-19T04:12:28.597Z,76.04
2023-05-19T04:14:55.269Z,76.10
2023-05-19T04:17:23.740Z,76.28
2023-05-19T04:19:51.090Z,76.44
2023-05-19T04:22:17.774Z,76.30
2023-05-19T04:24:44.663Z,76.38
2023-05-19T04:27:12.324Z,76.49
2023-05-19T04:29:40.738Z,76.51
2023-05-19T04:32:08.211Z,76.09
2023-05-19T04:34:35.432Z,76.35
2023-05-19T04:37:07.157Z,76.31
2023-05-19T04:39:33.885Z,76.20
2023-05-19T04:42:00.603Z,76.26
2023-05-19T04:44:27.188Z,76.12
2023-05-19T04:46:54.640Z,75.99
2023-05-19T04:49:23.752Z,76.12
2023-05-19T04:51:54.894Z,76.23
2023-05-19T04:54:22.805Z,76.17
2023-05-19T04:56:49.416Z,76.14
2023-05-19T04:59:16.062Z,75.89
2023-05-19T05:01:43.215Z,75.78
2023-05-19T05:04:10.020Z,75.88
2023-05-19T05:06:38.501Z,75.60
2023-05-19T05:09:05.443Z,75.29
2023-05-19T05:11:32.375Z,75.55
2023-05-19T05:13:59.301Z,75.34
2023-05-19T05:16:26.591Z,75.33
2023-05-19T05:18:53.655Z,75.14
2023-05-19T05:21:20.660Z,75.11
2023-05-19T05:23:47.741Z,75.10
2023-05-19T05:26:23.322Z,75.00
2023-05-19T05:28:50.393Z,74.95
2023-05-19T05:31:17.078Z,74.56
2023-05-19T05:33:44.009Z,74.61
2023-05-19T05:36:10.886Z,74.46
2023-05-19T05:38:37.518Z,74.10
2023-05-19T05:41:04.259Z,73.93
2023-05-19T05:43:31.078Z,73.61
2023-05-19T05:45:58.015Z,73.35
2023-05-19T05:48:25.075Z,73.19
2023-05-19T05:50:52.867Z,72.90
2023-05-19T05:53:20.675Z,72.87
2023-05-19T05:55:47.937Z,72.83
2023-05-19T05:58:15.860Z,72.49
2023-05-19T06:00:43.842Z,72.08
2023-05-19T06:03:11.360Z,71.98
2023-05-19T06:05:38.730Z,72.05
2023-05-19T06:08:06.007Z,71.93
2023-05-19T06:10:33.344Z,71.85
2023-05-19T06:13:00.462Z,71.59
2023-05-19T06:15:28.990Z,71.16
2023-05-19T06:17:56.040Z,70.93
2023-05-19T06:20:23.000Z,70.88
2023-05-19T06:22:49.851Z,70.54
2023-05-19T06:25:16.884Z,70.48
2023-05-19T06:27:43.780Z,70.40
2023-05-19T06:30:10.992Z,70.01
2023-05-19T06:32:37.769Z,69.85
2023-05-19T06:35:04.941Z,69.65
2023-05-19T06:37:31.536Z,69.37
2023-05-19T06:39:58.176Z,69.23
2023-05-19T06:42:26.010Z,69.16
2023-05-19T06:44:53.310Z,69.05
2023-05-19T06:47:20.060Z,69.03
2023-05-19T06:49:50.692Z,69.05
2023-05-19T06:52:17.599Z,68.74
2023-05-19T06:54:44.350Z,68.72
2023-05-19T06:57:11.149Z,68.66
2023-05-19T06:59:40.484Z,68.49
2023-05-19T07:02:08.651Z,68.50
2023-05-19T07:04:36.495Z,68.69
2023-05-19T07:07:03.273Z,68.67
2023-05-19T07:09:29.899Z,68.51
2023-05-19T07:11:56.905Z,68.73
2023-05-19T07:14:23.556Z,68.64
2023-05-19T07:16:50.209Z,68.73
2023-05-19T07:19:19.391Z,68.74
2023-05-19T07:21:46.974Z,68.91
2023-05-19T07:24:13.627Z,69.29
2023-05-19T07:26:40.924Z,68.99
2023-05-19T07:29:07.623Z,69.05
2023-05-19T07:31:34.502Z,68.95
2023-05-19T07:34:01.393Z,68.87
2023-05-19T07:36:28.026Z,68.65
2023-05-19T07:38:54.778Z,68.45
2023-05-19T07:41:21.849Z,68.31
2023-05-19T07:43:49.239Z,68.25
2023-05-19T07:46:16.001Z,68.11
2023-05-19T07:48:42.880Z,67.75
2023-05-19T07:51:12.737Z,67.60
2023-05-19T07:53:39.651Z,67.54
2023-05-19T07:56:06.613Z,67.45
2023-05-19T07:58:33.271Z,67.47
2023-05-19T08:01:00.717Z,67.34
2023-05-19T08:03:28.183Z,67.21
2023-05-19T08:05:55.065Z,67.00
2023-05-19T08:08:22.012Z,66.99
2023-05-19T08:10:48.890Z,65.86
2023-05-19T08:13:15.599Z,65.47
2023-05-19T08:15:42.910Z,64.70
2023-05-19T08:18:09.953Z,64.41
2023-05-19T08:20:36.765Z,63.44
2023-05-19T08:23:03.501Z,62.73
2023-05-19T08:25:30.107Z,62.98
2023-05-19T08:27:56.744Z,62.04
2023-05-19T08:30:23.953Z,61.97
2023-05-19T08:32:50.697Z,61.13
2023-05-19T08:35:17.593Z,61.14
2023-05-19T08:37:44.239Z,60.55
2023-05-19T08:40:17.140Z,60.29
2023-05-19T08:42:47.493Z,60.00
2023-05-19T08:45:14.571Z,59.31
2023-05-19T08:47:46.467Z,58.83
2023-05-19T08:50:29.298Z,58.50
2023-05-19T08:53:02.436Z,57.82
2023-05-19T08:55:36.716Z,57.55
2023-05-19T08:58:04.785Z,57.66
2023-05-19T09:00:33.096Z,57.34
2023-05-19T09:03:17.700Z,56.74
2023-05-19T09:05:46.783Z,56.68
2023-05-19T09:08:13.832Z,56.54
2023-05-19T09:10:40.705Z,56.32
2023-05-19T09:13:07.420Z,56.02
2023-05-19T09:15:36.912Z,55.66
2023-05-19T09:18:08.009Z,55.91
2023-05-19T09:20:40.262Z,55.79
2023-05-19T09:23:07.932Z,55.77
2023-05-19T09:25:34.919Z,55.66
2023-05-19T09:28:01.949Z,55.40
2023-05-19T09:30:29.130Z,55.17
2023-05-19T09:32:56.071Z,54.99
2023-05-19T09:35:22.913Z,54.72
2023-05-19T09:37:49.630Z,54.26
2023-05-19T09:40:16.542Z,54.48
2023-05-19T09:42:44.314Z,54.41
2023-05-19T09:45:11.492Z,54.41
2023-05-19T09:47:39.761Z,54.47
2023-05-19T09:50:10.066Z,54.50
2023-05-19T09:52:40.801Z,53.62
2023-05-19T09:55:11.718Z,53.58
2023-05-19T09:57:40.269Z,53.55
2023-05-19T10:00:20.264Z,53.63
2023-05-19T10:02:48.170Z,53.41
2023-05-19T10:05:22.014Z,53.46
2023-05-19T10:07:52.943Z,51.90
2023-05-19T10:10:20.848Z,51.29
2023-05-19T10:12:48.436Z,50.62
2023-05-19T10:15:20.673Z,49.91
2023-05-19T10:17:50.617Z,49.80
2023-05-19T10:20:17.900Z,49.59
2023-05-19T10:22:46.530Z,49.11
2023-05-19T10:25:18.695Z,49.88
2023-05-19T10:27:53.211Z,49.17
2023-05-19T10:30:32.964Z,48.19
2023-05-19T10:33:01.851Z,48.15
2023-05-19T10:35:51.177Z,47.43
2023-05-19T10:39:00.221Z,47.61
2023-05-19T10:41:51.019Z,47.02
2023-05-19T10:44:51.883Z,46.92
2023-05-19T10:47:28.110Z,46.67
2023-05-19T10:49:55.785Z,46.13
2023-05-19T10:52:25.943Z,45.76
2023-05-19T10:54:54.659Z,45.85
2023-05-19T10:57:28.531Z,45.14
2023-05-19T10:59:57.496Z,44.77
2023-05-19T11:02:41.494Z,44.46
2023-05-19T11:05:09.429Z,44.31
2023-05-19T11:07:36.513Z,44.68
2023-05-19T11:10:09.866Z,44.97
2023-05-19T11:12:45.615Z,44.82
2023-05-19T11:15:14.208Z,45.69
2023-05-19T11:17:42.558Z,45.74
2023-05-19T11:20:23.370Z,46.17
2023-05-19T11:23:33.463Z,47.84
2023-05-19T11:26:02.592Z,48.45
2023-05-19T11:28:30.746Z,49.34
2023-05-19T11:30:59.168Z,50.32
2023-05-19T11:33:29.249Z,51.90
2023-05-19T11:35:59.906Z,52.82
2023-05-19T11:38:28.532Z,53.51
2023-05-19T11:40:56.538Z,54.09
2023-05-19T11:43:26.781Z,54.74
2023-05-19T11:45:54.997Z,55.55
2023-05-19T11:48:22.527Z,56.36
2023-05-19T11:50:50.139Z,57.33
2023-05-19T11:53:17.209Z,57.95
2023-05-19T11:55:48.098Z,58.65
2023-05-19T11:58:15.327Z,58.98
2023-05-19T12:00:45.990Z,59.10
2023-05-19T12:03:13.358Z,59.68
2023-05-19T12:05:46.022Z,60.41
2023-05-19T12:08:14.005Z,60.85
2023-05-19T12:10:41.075Z,61.00
2023-05-19T12:13:09.844Z,61.22
2023-05-19T12:15:38.134Z,61.94
2023-05-19T12:18:04.972Z,62.01
2023-05-19T12:20:32.720Z,62.29
2023-05-19T12:23:00.873Z,62.29
2023-05-19T12:25:29.269Z,61.75
2023-05-19T12:28:05.107Z,61.78
2023-05-19T12:30:33.978Z,62.12
2023-05-19T12:33:02.362Z,61.37
2023-05-19T12:35:32.167Z,60.76
2023-05-19T12:38:03.650Z,59.87
2023-05-19T12:40:30.696Z,60.02
2023-05-19T12:42:59.302Z,59.25
2023-05-19T12:45:28.176Z,58.68
2023-05-19T12:47:56.271Z,58.51
2023-05-19T12:50:30.189Z,59.25
2023-05-19T12:52:57.470Z,59.69
2023-05-19T12:55:24.626Z,59.37
2023-05-19T12:57:57.936Z,58.81
2023-05-19T13:00:28.409Z,58.95
2023-05-19T13:03:05.029Z,58.28
2023-05-19T13:05:38.409Z,57.77
2023-05-19T13:08:12.928Z,56.00
2023-05-19T13:10:41.204Z,55.68
2023-05-19T13:13:09.144Z,54.73
2023-05-19T13:15:38.864Z,53.55
2023-05-19T13:18:08.810Z,53.51
2023-05-19T13:20:40.695Z,53.41
2023-05-19T13:23:07.823Z,52.91
2023-05-19T13:25:34.605Z,52.95
2023-05-19T13:28:05.424Z,53.49
2023-05-19T13:30:34.150Z,53.77
2023-05-19T13:33:01.314Z,53.58
2023-05-19T13:35:28.160Z,53.47
2023-05-19T13:37:56.860Z,53.73
2023-05-19T13:40:24.376Z,53.63
2023-05-19T13:42:51.092Z,53.68
2023-05-19T13:45:23.820Z,53.55
2023-05-19T13:47:50.435Z,53.55
2023-05-19T13:50:17.186Z,53.76
2023-05-19T13:52:43.886Z,53.77
2023-05-19T13:55:10.630Z,53.53
2023-05-19T13:57:38.245Z,53.35
2023-05-19T14:00:06.101Z,53.07
2023-05-19T14:02:34.037Z,52.55
2023-05-19T14:05:00.829Z,52.12
2023-05-19T14:07:28.342Z,52.17
2023-05-19T14:09:57.201Z,51.62
2023-05-19T14:12:33.910Z,51.63
2023-05-19T14:15:08.006Z,51.84
2023-05-19T14:17:35.830Z,52.54
2023-05-19T14:20:02.632Z,51.98
2023-05-19T14:22:29.422Z,52.25
2023-05-19T14:24:56.245Z,51.71
2023-05-19T14:27:22.914Z,51.37
2023-05-19T14:29:49.668Z,50.81
2023-05-19T14:32:16.671Z,50.53
2023-05-19T14:34:43.372Z,50.05
2023-05-19T14:37:10.045Z,49.77
2023-05-19T14:39:36.740Z,50.04
2023-05-19T14:42:03.553Z,50.54
2023-05-19T14:44:31.910Z,50.55
2023-05-19T14:47:00.682Z,52.44
2023-05-19T14:49:27.308Z,53.56
2023-05-19T14:51:53.998Z,54.52
2023-05-19T14:54:20.663Z,55.57
2023-05-19T14:56:47.371Z,56.42
2023-05-19T14:59:14.282Z,57.31
2023-05-19T15:01:41.125Z,58.12
2023-05-19T15:04:07.822Z,55.08
2023-05-19T15:06:34.664Z,53.96
2023-05-19T15:09:01.376Z,53.78
2023-05-19T15:11:28.029Z,53.56
2023-05-19T15:13:55.142Z,54.35
2023-05-19T15:16:21.856Z,54.46
2023-05-19T15:18:48.571Z,54.45
2023-05-19T15:21:15.404Z,54.69
2023-05-19T15:23:42.034Z,55.17
2023-05-19T15:26:08.828Z,55.64
2023-05-19T15:28:35.695Z,55.88
2023-05-19T15:31:02.412Z,55.75
2023-05-19T15:33:29.111Z,56.38
2023-05-19T15:35:57.267Z,57.01
2023-05-19T15:38:23.895Z,57.28
2023-05-19T15:40:50.618Z,55.19
2023-05-19T15:43:17.615Z,53.67
2023-05-19T15:45:44.213Z,53.95
2023-05-19T15:48:11.523Z,52.82
2023-05-19T15:50:38.406Z,53.07
2023-05-19T15:53:07.747Z,54.41
2023-05-19T15:55:34.485Z,53.61
2023-05-19T15:58:01.243Z,51.85
2023-05-19T16:00:27.849Z,52.38
2023-05-19T16:02:54.583Z,53.03
2023-05-19T16:05:21.354Z,52.48
2023-05-19T16:07:47.985Z,53.50
2023-05-19T16:10:14.755Z,54.37
2023-05-19T16:12:41.510Z,55.26
2023-05-19T16:15:08.693Z,54.83
2023-05-19T16:17:35.398Z,54.36
2023-05-19T16:20:02.054Z,54.35
2023-05-19T16:22:30.213Z,54.18
2023-05-19T16:24:56.836Z,55.11
2023-05-19T16:27:23.801Z,55.13
2023-05-19T16:29:50.543Z,55.56
2023-05-19T16:32:17.171Z,55.54
2023-05-19T16:34:43.856Z,56.08
2023-05-19T16:37:10.501Z,56.88
2023-05-19T16:39:37.336Z,56.90
2023-05-19T16:42:04.851Z,56.69
2023-05-19T16:44:31.704Z,56.90
2023-05-19T16:46:58.392Z,57.05
2023-05-19T16:49:25.169Z,57.40
2023-05-19T16:51:53.112Z,58.10
2023-05-19T16:54:20.872Z,58.93
2023-05-19T16:56:47.638Z,59.57
2023-05-19T16:59:14.262Z,60.04
2023-05-19T17:01:40.942Z,60.67
2023-05-19T17:04:08.200Z,60.94
2023-05-19T17:06:34.975Z,61.37
2023-05-19T17:09:02.105Z,61.88
2023-05-19T17:11:29.019Z,62.01
2023-05-19T17:13:55.774Z,62.42
2023-05-19T17:16:24.026Z,62.80
2023-05-19T17:18:51.220Z,62.72
2023-05-19T17:21:17.917Z,62.91
2023-05-19T17:23:44.719Z,63.13
2023-05-19T17:26:11.552Z,63.12
2023-05-19T17:28:38.213Z,63.42
2023-05-19T17:31:12.574Z,63.53
2023-05-19T17:33:39.688Z,63.49
2023-05-19T17:36:07.278Z,63.64
2023-05-19T17:38:34.436Z,63.90
2023-05-19T17:41:02.550Z,63.68
2023-05-19T17:43:29.944Z,63.92
2023-05-19T17:45:58.148Z,64.12
2023-05-19T17:48:25.945Z,64.18
2023-05-19T17:50:52.614Z,64.44
2023-05-19T17:53:19.810Z,64.50
2023-05-19T17:55:51.504Z,64.82
2023-05-19T17:58:19.224Z,64.93
2023-05-19T18:00:46.411Z,65.06
2023-05-19T18:03:13.886Z,64.99
2023-05-19T18:05:43.280Z,65.36
2023-05-19T18:08:10.866Z,65.38
2023-05-19T18:10:39.738Z,65.78
2023-05-19T18:13:08.012Z,65.68
2023-05-19T18:15:35.554Z,65.84
2023-05-19T18:18:05.519Z,65.96
2023-05-19T18:20:34.061Z,66.02
2023-05-19T18:23:01.497Z,66.32
2023-05-19T18:25:28.154Z,66.43
2023-05-19T18:27:55.833Z,66.50
2023-05-19T18:30:28.034Z,66.73
2023-05-19T18:32:55.027Z,66.69
2023-05-19T18:35:23.578Z,66.74
2023-05-19T18:37:50.771Z,66.70
2023-05-19T18:40:17.599Z,67.00
2023-05-19T18:42:44.541Z,67.19
2023-05-19T18:45:11.634Z,67.30
2023-05-19T18:47:38.412Z,67.44
2023-05-19T18:50:05.767Z,67.59
2023-05-19T18:52:32.578Z,67.57
2023-05-19T18:55:01.163Z,67.62
2023-05-19T18:57:27.826Z,67.82
2023-05-19T18:59:54.914Z,67.78
2023-05-19T19:02:21.550Z,68.03
2023-05-19T19:04:48.367Z,67.73
2023-05-19T19:07:15.303Z,68.13
2023-05-19T19:09:43.714Z,68.39
2023-05-19T19:12:10.838Z,68.41
2023-05-19T19:14:37.639Z,68.76
2023-05-19T19:17:04.496Z,68.44
2023-05-19T19:19:31.315Z,68.93
2023-05-19T19:21:58.095Z,69.13
2023-05-19T19:24:26.483Z,68.94
2023-05-19T19:26:53.082Z,68.94
2023-05-19T19:29:21.843Z,69.11
2023-05-19T19:31:48.770Z,69.14
2023-05-19T19:34:15.703Z,69.10
2023-05-19T19:36:42.678Z,68.93
2023-05-19T19:39:09.465Z,69.09
2023-05-19T19:41:36.675Z,68.94
2023-05-19T19:44:03.630Z,69.17
2023-05-19T19:46:30.396Z,69.61
2023-05-19T19:49:00.932Z,69.81
2023-05-19T19:51:28.818Z,69.75
2023-05-19T19:53:55.678Z,69.74
2023-05-19T19:56:24.821Z,69.65
2023-05-19T19:58:51.803Z,69.77
2023-05-19T20:01:20.495Z,69.90
2023-05-19T20:03:48.066Z,69.76
2023-05-19T20:06:15.420Z,69.96
2023-05-19T20:08:42.048Z,70.26
2023-05-19T20:11:08.933Z,70.23
2023-05-19T20:13:35.719Z,70.16
2023-05-19T20:16:02.596Z,70.22
2023-05-19T20:18:29.965Z,70.40
2023-05-19T20:20:57.401Z,70.52
2023-05-19T20:23:24.064Z,70.56
2023-05-19T20:26:10.354Z,70.99
2023-05-19T20:28:37.503Z,70.80
2023-05-19T20:31:06.350Z,71.23
2023-05-19T20:33:33.079Z,71.38
2023-05-19T20:36:00.007Z,71.45
2023-05-19T20:38:26.637Z,71.54
2023-05-19T20:40:54.314Z,71.60
2023-05-19T20:43:21.457Z,71.66
2023-05-19T20:45:48.166Z,71.72
2023-05-19T20:48:16.027Z,71.81
2023-05-19T20:50:43.020Z,71.92
2023-05-19T20:53:09.660Z,72.03
2023-05-19T20:55:36.591Z,72.21
2023-05-19T20:58:03.272Z,72.26
2023-05-19T21:00:30.783Z,72.11
2023-05-19T21:02:57.897Z,72.55
2023-05-19T21:05:25.055Z,72.67
2023-05-19T21:07:51.817Z,72.48
2023-05-19T21:10:22.183Z,72.75
2023-05-19T21:12:49.311Z,72.93
2023-05-19T21:15:16.271Z,73.04
2023-05-19T21:17:42.944Z,72.94
2023-05-19T21:20:10.498Z,73.04
2023-05-19T21:22:37.160Z,72.99
2023-05-19T21:25:04.123Z,72.85
2023-05-19T21:27:32.919Z,73.30
2023-05-19T21:30:00.087Z,72.90
2023-05-19T21:32:27.413Z,72.94
2023-05-19T21:34:54.120Z,73.24
2023-05-19T21:37:21.744Z,73.33
2023-05-19T21:39:48.901Z,73.14
2023-05-19T21:42:15.649Z,73.34
2023-05-19T21:44:42.451Z,73.32
2023-05-19T21:47:09.079Z,73.34
2023-05-19T21:49:36.118Z,73.11
2023-05-19T21:52:02.768Z,73.29
2023-05-19T21:54:29.427Z,73.30
2023-05-19T21:56:56.344Z,73.18
2023-05-19T21:59:24.832Z,73.11
2023-05-19T22:01:51.575Z,73.25
2023-05-19T22:04:18.755Z,73.22
2023-05-19T22:06:45.777Z,73.30
2023-05-19T22:09:12.940Z,73.08
2023-05-19T22:11:39.924Z,73.41
2023-05-19T22:14:07.076Z,73.28
2023-05-19T22:16:34.051Z,73.41
2023-05-19T22:19:00.798Z,73.48
2023-05-19T22:21:27.513Z,73.55
2023-05-19T22:23:54.184Z,73.63
2023-05-19T22:26:21.786Z,73.67
2023-05-19T22:28:49.376Z,73.62
2023-05-19T22:31:16.703Z,73.54
2023-05-19T22:33:43.457Z,73.91
2023-05-19T22:36:11.088Z,73.87
2023-05-19T22:38:37.842Z,73.99
2023-05-19T22:41:04.730Z,74.08
2023-05-19T22:43:31.503Z,74.24
2023-05-19T22:45:58.199Z,74.67
2023-05-19T22:48:24.924Z,74.70
2023-05-19T22:50:51.647Z,74.75
2023-05-19T22:53:18.269Z,74.87
2023-05-19T22:55:45.091Z,74.94
2023-05-19T22:58:11.742Z,75.26
2023-05-19T23:00:38.328Z,75.10
2023-05-19T23:03:05.064Z,75.55
2023-05-19T23:05:32.253Z,75.61
2023-05-19T23:07:59.059Z,75.99
2023-05-19T23:10:25.884Z,75.79
2023-05-19T23:12:52.690Z,75.83
2023-05-19T23:15:24.004Z,75.84
2023-05-19T23:17:50.679Z,75.59
2023-05-19T23:20:17.701Z,75.84
2023-05-19T23:22:44.340Z,75.76
2023-05-19T23:25:11.488Z,75.70
2023-05-19T23:27:38.230Z,75.59
2023-05-19T23:30:05.423Z,75.80
2023-05-19T23:32:32.372Z,75.88
2023-05-19T23:35:17.516Z,75.97
2023-05-19T23:37:44.319Z,76.08
2023-05-19T23:40:11.590Z,75.90
2023-05-19T23:42:38.475Z,75.86
2023-05-19T23:45:06.021Z,75.96
2023-05-19T23:47:32.664Z,75.86
2023-05-19T23:49:59.336Z,75.86
2023-05-19T23:52:26.152Z,75.99
2023-05-19T23:54:52.832Z,75.96
2023-05-19T23:57:19.465Z,75.88
2023-05-19T23:59:46.558Z,75.77
